Time;durP1;ratioP1;P1;durP2;ratioP2;P2;SDS_P1;SDS_P2;PMS_P1;PMS_P2;Temp;Humidity;BMP_temperature;BMP_pressure;BME280_temperature;BME280_humidity;BME280_pressure;Samples;Min_cycle;Max_cycle;Signal;HPM_P1;HPM_P2
2023/08/01 00:01:28;;;;;;;44.03;2.83;;;;;;;24.70;55.56;98282.00;7313940;19;129038;-40
2023/08/01 00:03:53;;;;;;;44.70;2.67;;;;;;;24.74;55.47;98262.22;7313964;19;129497;-40
2023/08/01 00:06:19;;;;;;;36.47;2.37;;;;;;;24.78;56.15;98258.19;7313516;19;130666;-39
2023/08/01 00:08:45;;;;;;;56.05;3.70;;;;;;;24.80;55.78;98250.94;7315909;19;130735;-40
2023/08/01 00:11:11;;;;;;;69.87;4.83;;;;;;;24.82;55.72;98249.75;7306823;19;129924;-40
2023/08/01 00:13:37;;;;;;;78.40;5.18;;;;;;;24.83;55.93;98242.66;7303784;19;129803;-40
2023/08/01 00:16:02;;;;;;;78.37;4.53;;;;;;;24.85;56.13;98232.78;7302281;19;130704;-40
2023/08/01 00:18:27;;;;;;;37.10;2.17;;;;;;;24.87;55.97;98228.13;7308561;19;129216;-40
2023/08/01 00:20:53;;;;;;;30.40;1.90;;;;;;;24.90;55.93;98227.75;7313961;19;131223;-40
2023/08/01 00:23:19;;;;;;;47.40;2.60;;;;;;;24.87;56.08;98215.00;7314315;19;130194;-40
2023/08/01 00:25:44;;;;;;;25.20;1.60;;;;;;;24.88;56.10;98216.59;7317693;19;129095;-40
2023/08/01 00:28:10;;;;;;;40.17;2.40;;;;;;;24.87;56.36;98209.75;7316134;19;129816;-39
2023/08/01 00:30:35;;;;;;;36.13;2.27;;;;;;;24.65;53.29;98200.25;7312883;19;128773;-40
2023/08/01 00:33:01;;;;;;;45.60;2.63;;;;;;;24.51;52.61;98209.06;7313261;19;130677;-40
2023/08/01 00:35:26;;;;;;;24.40;1.53;;;;;;;24.45;51.89;98197.50;7316559;19;130914;-40
2023/08/01 00:37:52;;;;;;;85.03;5.50;;;;;;;24.52;53.76;98194.94;7307310;19;130420;-40
2023/08/01 00:40:17;;;;;;;102.23;6.40;;;;;;;24.62;55.29;98185.72;7298062;19;130792;-40
2023/08/01 00:42:43;;;;;;;33.40;2.17;;;;;;;24.70;55.72;98184.75;7316273;19;130175;-39
2023/08/01 00:45:09;;;;;;;40.53;2.43;;;;;;;24.74;55.77;98178.94;7316471;19;129970;-40
2023/08/01 00:47:34;;;;;;;38.53;2.38;;;;;;;24.80;55.84;98178.16;7314962;19;131141;-40
2023/08/01 00:50:01;;;;;;;41.43;2.47;;;;;;;24.76;55.58;98161.13;7313774;19;130463;-40
2023/08/01 00:52:27;;;;;;;42.28;2.60;;;;;;;24.83;56.00;98162.00;7314753;19;129384;-40
2023/08/01 00:54:52;;;;;;;43.53;2.78;;;;;;;24.84;55.65;98155.72;7315267;19;129097;-40
2023/08/01 00:57:18;;;;;;;31.33;1.97;;;;;;;24.84;55.80;98158.34;7315426;19;129269;-40
2023/08/01 00:59:43;;;;;;;90.97;5.43;;;;;;;24.81;56.38;98155.31;7313299;19;128945;-40
2023/08/01 01:02:09;;;;;;;53.10;3.10;;;;;;;24.85;56.49;98159.16;7315856;19;128765;-40
2023/08/01 01:04:34;;;;;;;22.47;1.40;;;;;;;24.85;56.53;98151.28;7314446;19;131085;-40
2023/08/01 01:07:03;;;;;;;36.80;2.10;;;;;;;24.85;56.59;98146.84;7314572;19;130030;-40
2023/08/01 01:09:31;;;;;;;59.65;3.28;;;;;;;24.83;56.74;98146.22;7314165;19;129145;-42
2023/08/01 01:11:57;;;;;;;81.28;5.07;;;;;;;24.62;52.71;98137.59;7313224;19;129368;-40
2023/08/01 01:14:22;;;;;;;100.23;6.13;;;;;;;24.47;52.52;98129.81;7298365;19;130385;-40
2023/08/01 01:16:48;;;;;;;81.50;5.17;;;;;;;24.51;51.91;98125.00;7299544;19;131251;-39
2023/08/01 01:19:13;;;;;;;118.23;7.03;;;;;;;24.52;53.81;98126.59;7298796;19;130582;-40
2023/08/01 01:21:41;;;;;;;78.37;4.90;;;;;;;24.54;55.41;98098.31;7296711;19;130280;-40
2023/08/01 01:24:09;;;;;;;84.80;5.38;;;;;;;24.63;55.93;98107.66;7301493;19;130292;-40
2023/08/01 01:26:36;;;;;;;84.13;5.40;;;;;;;24.76;55.47;98113.03;7298251;19;130579;-40
2023/08/01 01:29:04;;;;;;;100.75;6.20;;;;;;;24.79;56.04;98113.44;7297808;19;129844;-39
2023/08/01 01:31:31;;;;;;;92.70;5.85;;;;;;;24.82;56.08;98117.50;7297153;19;130111;-40
2023/08/01 01:33:57;;;;;;;40.70;2.35;;;;;;;24.84;55.57;98116.28;7303026;19;129539;-40
2023/08/01 01:36:22;;;;;;;33.20;2.03;;;;;;;24.84;55.80;98115.50;7314941;19;129672;-39
2023/08/01 01:38:48;;;;;;;64.53;3.63;;;;;;;24.83;55.56;98108.59;7314471;19;129697;-40
2023/08/01 01:41:13;;;;;;;21.07;1.33;;;;;;;24.82;55.76;98101.72;7312208;19;129482;-40
2023/08/01 01:43:39;;;;;;;33.33;2.00;;;;;;;24.80;56.10;98093.22;7314186;19;130106;-40
2023/08/01 01:46:04;;;;;;;55.03;3.37;;;;;;;24.82;56.44;98101.72;7311370;19;131264;-39
2023/08/01 01:48:29;;;;;;;47.70;2.63;;;;;;;24.79;56.64;98094.25;7312073;19;128917;-40
2023/08/01 01:50:55;;;;;;;31.93;1.93;;;;;;;24.70;56.26;98088.34;7308834;19;129241;-40
2023/08/01 01:53:20;;;;;;;33.13;2.00;;;;;;;24.65;53.71;98100.41;7314342;19;129019;-40
2023/08/01 01:55:45;;;;;;;50.80;2.87;;;;;;;24.48;52.04;98099.13;7310304;19;129461;-40
2023/08/01 01:58:11;;;;;;;47.93;2.77;;;;;;;24.48;52.47;98104.38;7314541;19;129131;-40
2023/08/01 02:00:36;;;;;;;42.07;2.40;;;;;;;24.48;51.60;98094.66;7311146;19;129301;-39
2023/08/01 02:03:02;;;;;;;38.70;2.30;;;;;;;24.58;54.90;98089.06;7313613;19;129351;-40
2023/08/01 02:05:28;;;;;;;24.23;1.42;;;;;;;24.69;55.35;98088.53;7313063;19;130411;-40
2023/08/01 02:07:54;;;;;;;57.10;3.20;;;;;;;24.62;55.03;98066.63;7313513;19;129212;-40
2023/08/01 02:10:19;;;;;;;34.17;2.00;;;;;;;24.76;56.14;98086.75;7311411;19;130343;-40
2023/08/01 02:12:44;;;;;;;38.73;2.27;;;;;;;24.77;56.36;98077.84;7313073;19;129380;-40
2023/08/01 02:15:10;;;;;;;41.73;2.33;;;;;;;24.77;56.11;98076.03;7310961;19;129418;-40
2023/08/01 02:17:35;;;;;;;34.17;2.13;;;;;;;24.77;55.94;98073.41;7310452;19;130439;-40
2023/08/01 02:20:00;;;;;;;38.17;2.20;;;;;;;24.79;56.23;98067.94;7311917;19;128946;-39
2023/08/01 02:22:26;;;;;;;48.03;2.83;;;;;;;24.79;56.06;98067.94;7312463;19;129692;-40
2023/08/01 02:24:52;;;;;;;38.97;2.43;;;;;;;24.76;56.22;98055.22;7313425;19;131243;-39
2023/08/01 02:27:17;;;;;;;67.17;4.03;;;;;;;24.80;56.13;98057.22;7313107;19;129218;-40
2023/08/01 02:29:44;;;;;;;51.23;2.93;;;;;;;24.79;56.39;98057.44;7311332;19;129476;-39
2023/08/01 02:32:09;;;;;;;70.75;4.40;;;;;;;24.79;56.01;98054.81;7311369;19;129185;-39
2023/08/01 02:34:34;;;;;;;52.20;2.97;;;;;;;24.58;53.63;98026.00;7312153;19;129714;-39
2023/08/01 02:37:00;;;;;;;32.93;2.17;;;;;;;24.38;52.51;98021.47;7312440;19;129163;-40
2023/08/01 02:39:25;;;;;;;44.07;2.50;;;;;;;24.45;52.28;98027.56;7311883;19;129602;-40
2023/08/01 02:41:50;;;;;;;45.80;2.63;;;;;;;24.32;52.52;98019.63;7308953;19;129322;-40
2023/08/01 02:44:16;;;;;;;42.40;2.57;;;;;;;24.60;55.47;98029.22;7312192;19;129344;-40
2023/08/01 02:46:41;;;;;;;36.37;2.20;;;;;;;24.66;55.85;98023.97;7312484;19;129046;-40
2023/08/01 02:49:06;;;;;;;34.30;2.00;;;;;;;24.68;55.81;98016.75;7311646;19;129332;-40
2023/08/01 02:51:32;;;;;;;40.77;2.40;;;;;;;24.75;55.79;98019.41;7308827;19;129546;-40
2023/08/01 02:53:57;;;;;;;41.73;2.47;;;;;;;24.78;55.97;98021.63;7310992;19;130203;-40
2023/08/01 02:56:22;;;;;;;39.30;2.40;;;;;;;24.80;55.54;98014.34;7312772;19;129257;-40
2023/08/01 02:58:48;;;;;;;63.83;3.63;;;;;;;24.76;56.41;98006.06;7310732;19;129352;-39
2023/08/01 03:01:13;;;;;;;107.73;6.60;;;;;;;24.70;56.31;97987.63;7308783;19;130148;-40
2023/08/01 03:03:39;;;;;;;33.57;1.93;;;;;;;24.80;56.48;97993.34;7319338;19;130487;-40
2023/08/01 03:06:04;;;;;;;32.37;2.00;;;;;;;24.81;56.17;97989.72;7319674;19;129463;-40
2023/08/01 03:08:30;;;;;;;34.07;2.00;;;;;;;24.78;56.26;97987.47;7316756;19;129790;-40
2023/08/01 03:10:55;;;;;;;53.23;3.07;;;;;;;24.80;56.62;97988.88;7315396;19;129188;-40
2023/08/01 03:13:21;;;;;;;90.73;5.67;;;;;;;24.80;56.27;97988.06;7305357;19;130360;-40
2023/08/01 03:15:46;;;;;;;66.77;4.03;;;;;;;24.81;56.61;97982.63;7303732;19;130000;-40
2023/08/01 03:18:12;;;;;;;35.97;2.23;;;;;;;24.58;52.42;97968.19;7315782;19;130154;-40
2023/08/01 03:20:37;;;;;;;51.00;2.90;;;;;;;24.37;51.70;97951.56;7315284;19;130125;-40
2023/08/01 03:23:03;;;;;;;31.00;1.80;;;;;;;24.48;51.66;97968.53;7318166;19;131471;-39
2023/08/01 03:25:29;;;;;;;39.37;2.40;;;;;;;24.53;54.17;97966.13;7316769;19;128837;-39
2023/08/01 03:27:54;;;;;;;36.13;2.13;;;;;;;24.65;55.49;97958.47;7316623;19;129354;-40
2023/08/01 03:30:20;;;;;;;37.33;2.17;;;;;;;24.67;55.65;97956.47;7314643;19;129918;-39
2023/08/01 03:32:46;;;;;;;34.45;2.03;;;;;;;24.74;55.90;97959.97;7317648;19;129679;-39
2023/08/01 03:35:13;;;;;;;77.87;4.67;;;;;;;24.79;55.85;97945.19;7316547;19;131587;-40
2023/08/01 03:37:39;;;;;;;38.65;2.28;;;;;;;24.71;55.52;97920.94;7317213;19;129241;-40
2023/08/01 03:40:08;;;;;;;92.97;5.30;;;;;;;24.84;56.21;97921.75;7314747;19;129067;-40
2023/08/01 03:42:34;;;;;;;50.83;2.92;;;;;;;24.85;55.79;97923.38;7316544;19;130361;-40
2023/08/01 03:44:59;;;;;;;39.10;2.53;;;;;;;24.85;56.10;97927.81;7316076;19;129490;-40
2023/08/01 03:47:24;;;;;;;41.07;2.40;;;;;;;24.85;56.01;97931.28;7317796;19;129396;-40
2023/08/01 03:49:50;;;;;;;48.13;2.80;;;;;;;24.86;56.10;97929.47;7314320;19;129505;-40
2023/08/01 03:52:15;;;;;;;47.20;2.87;;;;;;;24.84;55.74;97918.34;7316133;19;130396;-40
2023/08/01 03:54:41;;;;;;;44.47;2.63;;;;;;;24.83;56.12;97912.25;7315862;19;129452;-40
2023/08/01 03:57:06;;;;;;;49.03;2.77;;;;;;;24.84;56.58;97913.88;7316534;19;129357;-40
2023/08/01 03:59:31;;;;;;;52.90;2.93;;;;;;;24.66;53.50;97912.81;7314370;19;129091;-40
2023/08/01 04:01:57;;;;;;;37.53;2.10;;;;;;;24.52;52.54;97904.09;7314042;19;129246;-40
2023/08/01 04:04:22;;;;;;;31.73;2.00;;;;;;;24.51;52.49;97907.72;7314204;19;128946;-40
2023/08/01 04:06:48;;;;;;;45.53;2.73;;;;;;;24.51;52.70;97904.31;7317284;19;128801;-39
2023/08/01 04:09:13;;;;;;;45.30;2.60;;;;;;;24.59;54.71;97888.34;7314524;19;130100;-40
2023/08/01 04:11:38;;;;;;;46.77;2.63;;;;;;;24.69;55.58;97896.69;7312592;19;130073;-39
2023/08/01 04:14:04;;;;;;;25.17;1.63;;;;;;;24.73;55.36;97890.81;7314066;19;129074;-40
2023/08/01 04:16:29;;;;;;;53.97;2.90;;;;;;;24.66;55.91;97873.41;7316436;19;128802;-39
2023/08/01 04:18:55;;;;;;;49.60;2.80;;;;;;;24.80;55.78;97888.19;7315065;19;129233;-42
2023/08/01 04:21:20;;;;;;;22.33;1.47;;;;;;;24.82;55.49;97886.19;7313327;19;129238;-39
2023/08/01 04:23:45;;;;;;;62.17;3.77;;;;;;;24.81;55.65;97879.31;7314582;19;129206;-40
2023/08/01 04:26:11;;;;;;;56.67;3.23;;;;;;;24.79;56.42;97882.09;7312040;19;132534;-39
2023/08/01 04:28:36;;;;;;;62.93;3.93;;;;;;;24.81;56.50;97876.69;7315945;19;129987;-40
2023/08/01 04:31:02;;;;;;;87.00;5.53;;;;;;;24.71;56.49;97863.91;7306533;19;130491;-42
2023/08/01 04:33:27;;;;;;;35.50;2.10;;;;;;;24.81;56.44;97869.59;7316279;19;129421;-43
2023/08/01 04:35:52;;;;;;;41.30;2.47;;;;;;;24.81;55.85;97869.59;7314427;19;128824;-40
2023/08/01 04:38:18;;;;;;;27.33;1.60;;;;;;;24.81;56.58;97868.78;7316174;19;131048;-40
2023/08/01 04:40:43;;;;;;;32.97;1.97;;;;;;;24.68;52.91;97866.13;7310682;19;130839;-42
2023/08/01 04:43:09;;;;;;;143.63;8.53;;;;;;;24.51;52.36;97854.38;7311292;19;130504;-42
2023/08/01 04:45:35;;;;;;;98.40;6.17;;;;;;;24.48;51.80;97845.88;7310817;19;130433;-41
2023/08/01 04:48:00;;;;;;;42.67;2.67;;;;;;;24.49;52.29;97852.75;7313410;19;130117;-39
2023/08/01 04:50:26;;;;;;;21.10;1.27;;;;;;;24.52;54.68;97827.09;7312663;19;130916;-43
2023/08/01 04:52:51;;;;;;;53.87;3.17;;;;;;;24.70;55.60;97840.47;7314011;19;129393;-42
2023/08/01 04:55:16;;;;;;;42.17;2.60;;;;;;;24.74;55.40;97841.69;7315771;19;129512;-42
2023/08/01 04:57:42;;;;;;;45.27;2.70;;;;;;;24.76;55.85;97842.31;7312820;19;131032;-43
2023/08/01 05:00:09;;;;;;;50.67;3.07;;;;;;;24.77;55.95;97830.78;7312923;19;131319;-43
2023/08/01 05:02:35;;;;;;;44.20;2.67;;;;;;;24.76;55.79;97829.94;7314815;19;129387;-43
2023/08/01 05:05:00;;;;;;;40.80;2.53;;;;;;;24.77;55.67;97833.41;7315284;19;128791;-43
2023/08/01 05:07:25;;;;;;;49.43;3.10;;;;;;;24.78;56.11;97827.13;7308574;19;130139;-42
2023/08/01 05:09:51;;;;;;;47.30;2.63;;;;;;;24.77;55.70;97831.59;7309655;19;130438;-43
2023/08/01 05:12:16;;;;;;;85.03;5.23;;;;;;;24.67;55.93;97804.88;7311463;19;129222;-41
2023/08/01 05:14:42;;;;;;;34.57;2.10;;;;;;;24.79;56.66;97828.75;7308825;19;129202;-41
2023/08/01 05:17:07;;;;;;;65.53;4.17;;;;;;;24.80;56.78;97820.66;7308687;19;129544;-40
2023/08/01 05:19:32;;;;;;;167.20;9.93;;;;;;;24.82;56.00;97817.81;7297715;19;130512;-41
2023/08/01 05:21:58;;;;;;;110.90;6.63;;;;;;;24.70;53.45;97822.88;7299027;19;129178;-39
2023/08/01 05:24:23;;;;;;;55.43;3.37;;;;;;;24.55;52.02;97813.53;7298804;19;130905;-43
2023/08/01 05:26:48;;;;;;;37.10;2.27;;;;;;;24.48;51.54;97815.38;7313900;19;130165;-43
2023/08/01 05:29:14;;;;;;;53.77;3.23;;;;;;;24.48;52.12;97790.72;7312326;19;130448;-38
2023/08/01 05:31:39;;;;;;;46.73;2.80;;;;;;;24.63;55.22;97808.09;7310777;19;129385;-42
2023/08/01 05:34:05;;;;;;;45.93;2.97;;;;;;;24.69;55.02;97807.31;7312529;19;129221;-42
2023/08/01 05:36:30;;;;;;;29.97;1.93;;;;;;;24.75;55.23;97812.56;7311768;19;129234;-40
2023/08/01 05:38:56;;;;;;;62.43;3.73;;;;;;;24.79;55.89;97813.78;7311504;19;129305;-40
2023/08/01 05:41:22;;;;;;;78.05;4.72;;;;;;;24.71;55.79;97789.53;7310800;19;129082;-41
2023/08/01 05:43:48;;;;;;;35.63;2.33;;;;;;;24.83;56.38;97806.28;7309140;19;130113;-39
2023/08/01 05:46:14;;;;;;;;;;;;;;;24.89;56.91;97798.41;7313236;19;129473;-38
2023/08/01 05:48:39;;;;;;;77.40;4.40;;;;;;;24.84;56.07;97800.03;7313457;19;129749;-38
2023/08/01 05:51:04;;;;;;;44.47;2.67;;;;;;;24.81;56.24;97800.44;7311513;19;131375;-41
2023/08/01 05:53:30;;;;;;;30.57;1.93;;;;;;;24.72;56.47;97785.88;7312815;19;129115;-38
2023/08/01 05:55:55;;;;;;;55.10;3.20;;;;;;;24.82;55.80;97791.53;7311253;19;130820;-39
2023/08/01 05:58:21;;;;;;;58.60;3.37;;;;;;;24.83;56.16;97785.25;7312732;19;130382;-40
2023/08/01 06:00:46;;;;;;;32.77;2.00;;;;;;;24.85;56.78;97784.06;7311561;19;129987;-38
2023/08/01 06:03:12;;;;;;;29.23;1.93;;;;;;;24.86;55.68;97777.00;7312253;19;129465;-39
2023/08/01 06:05:38;;;;;;;31.57;2.00;;;;;;;24.53;52.77;97776.97;7312262;19;131019;-38
2023/08/01 06:08:04;;;;;;;71.70;4.13;;;;;;;24.46;52.37;97781.44;7312588;19;130832;-42
2023/08/01 06:10:29;;;;;;;33.58;2.08;;;;;;;24.45;51.77;97771.91;7310091;19;128928;-40
2023/08/01 06:12:55;;;;;;;77.53;4.97;;;;;;;24.55;54.46;97761.81;7310613;19;129100;-41
2023/08/01 06:15:21;;;;;;;38.60;2.47;;;;;;;24.66;55.09;97765.66;7309798;19;129511;-40
2023/08/01 06:17:46;;;;;;;36.67;2.55;;;;;;;24.72;55.35;97754.34;7312810;19;130369;-40
2023/08/01 06:20:12;;;;;;;34.30;2.37;;;;;;;24.76;55.50;97760.84;7309382;19;130044;-39
2023/08/01 06:22:38;;;;;;;42.00;2.73;;;;;;;24.78;56.08;97753.53;7308377;19;129272;-40
2023/08/01 06:25:03;;;;;;;42.40;2.70;;;;;;;24.81;56.29;97753.13;7312064;19;129805;-39
2023/08/01 06:27:29;;;;;;;58.83;3.77;;;;;;;24.81;56.00;97747.88;7311194;19;130263;-40
2023/08/01 06:29:54;;;;;;;49.67;3.00;;;;;;;24.81;56.13;97747.88;7312262;19;129820;-40
2023/08/01 06:32:20;;;;;;;44.23;2.77;;;;;;;24.81;56.06;97747.88;7311128;19;129489;-39
2023/08/01 06:34:45;;;;;;;53.83;3.13;;;;;;;24.77;56.00;97742.22;7310275;19;129672;-40
2023/08/01 06:37:10;;;;;;;51.57;3.03;;;;;;;24.80;56.58;97752.31;7312068;19;129529;-40
2023/08/01 06:39:36;;;;;;;58.87;3.57;;;;;;;24.83;56.10;97741.41;7308513;19;129335;-40
2023/08/01 06:42:01;;;;;;;39.97;2.57;;;;;;;24.70;57.04;97730.09;7307928;19;130032;-42
2023/08/01 06:44:27;;;;;;;52.30;3.17;;;;;;;24.83;56.65;97745.84;7313837;19;128977;-40
2023/08/01 06:46:52;;;;;;;48.90;3.13;;;;;;;24.69;54.59;97744.25;7317062;19;129477;-40
2023/08/01 06:49:17;;;;;;;51.23;3.53;;;;;;;24.69;52.19;97760.03;7314048;19;129807;-41
2023/08/01 06:51:43;;;;;;;35.93;2.40;;;;;;;24.74;52.75;97755.78;7314077;19;129546;-40
2023/08/01 06:54:08;;;;;;;53.97;3.33;;;;;;;24.83;51.88;97758.97;7315016;19;129510;-42
2023/08/01 06:56:33;;;;;;;30.23;2.10;;;;;;;24.79;54.87;97750.69;7315265;19;129664;-40
2023/08/01 06:58:59;;;;;;;22.67;1.83;;;;;;;24.86;55.60;97751.50;7318021;19;128909;-39
2023/08/01 07:01:24;;;;;;;29.13;2.13;;;;;;;24.92;55.60;97749.88;7312943;19;128960;-40
2023/08/01 07:03:52;;;;;;;46.60;3.03;;;;;;;24.95;55.83;97746.81;7317767;19;129113;-42
2023/08/01 07:06:18;;;;;;;72.25;4.97;;;;;;;24.95;56.25;97747.66;7315699;19;129257;-39
2023/08/01 07:08:44;;;;;;;67.57;4.60;;;;;;;24.97;56.25;97755.31;7311699;19;129448;-34
2023/08/01 07:11:10;;;;;;;38.80;2.65;;;;;;;24.94;56.24;97756.53;7313341;19;131890;-39
2023/08/01 07:13:35;;;;;;;51.53;3.43;;;;;;;25.00;56.08;97747.03;7310736;19;129990;-40
2023/08/01 07:16:00;;;;;;;99.50;6.67;;;;;;;25.00;56.73;97745.22;7307410;19;131409;-36
2023/08/01 07:18:26;;;;;;;97.23;6.70;;;;;;;25.01;57.13;97748.63;7299922;19;130647;-38
2023/08/01 07:21:02;;;;;;;80.57;5.63;;;;;;;25.04;57.64;97753.50;7299463;19;129469;-41
2023/08/01 07:23:28;;;;;;;53.38;3.47;;;;;;;24.98;57.11;97738.53;7304029;19;131485;-39
2023/08/01 07:25:53;;;;;;;24.40;2.20;;;;;;;24.92;56.68;97720.97;7317675;19;130542;-40
2023/08/01 07:28:19;;;;;;;91.43;5.97;;;;;;;24.96;53.83;97745.81;7312697;19;131517;-39
2023/08/01 07:30:44;;;;;;;35.43;2.47;;;;;;;24.96;53.00;97736.09;7313623;19;128986;-42
2023/08/01 07:33:09;;;;;;;48.80;3.57;;;;;;;24.98;55.10;97738.53;7315225;19;129544;-42
2023/08/01 07:35:35;;;;;;;36.77;2.77;;;;;;;24.98;56.27;97735.91;7316915;19;129685;-37
2023/08/01 07:38:00;;;;;;;30.17;2.43;;;;;;;25.03;56.29;97744.78;7317441;19;129397;-39
2023/08/01 07:40:26;;;;;;;60.83;4.23;;;;;;;25.04;57.14;97746.41;7311965;19;129301;-43
2023/08/01 07:42:51;;;;;;;45.60;3.10;;;;;;;24.94;57.22;97737.34;7310668;19;129264;-35
2023/08/01 07:45:17;;;;;;;66.50;4.77;;;;;;;25.05;57.21;97750.66;7312233;19;129316;-41
2023/08/01 07:47:42;;;;;;;47.67;3.50;;;;;;;25.09;56.84;97751.06;7313166;19;129626;-39
2023/08/01 07:50:09;;;;;;;57.37;4.17;;;;;;;25.09;57.11;97748.44;7316551;19;130713;-31
2023/08/01 07:52:34;;;;;;;25.35;2.22;;;;;;;25.07;57.47;97743.34;7324940;19;129193;-42
2023/08/01 07:55:00;;;;;;;77.53;5.37;;;;;;;25.07;57.83;97732.03;7320656;19;130238;-33
2023/08/01 07:57:25;;;;;;;32.10;2.60;;;;;;;25.06;57.63;97747.00;7321525;19;129246;-35
2023/08/01 07:59:50;;;;;;;50.37;3.33;;;;;;;25.06;57.21;97747.00;7318849;19;129231;-39
2023/08/01 08:02:16;;;;;;;37.63;2.73;;;;;;;25.03;57.55;97730.81;7321745;19;130629;-36
2023/08/01 08:04:41;;;;;;;38.60;2.83;;;;;;;24.99;57.20;97724.38;7319739;19;129862;-38
2023/08/01 08:07:06;;;;;;;37.67;2.87;;;;;;;25.07;57.37;97732.03;7318139;19;128700;-41
2023/08/01 08:09:32;;;;;;;62.73;4.27;;;;;;;25.09;57.76;97737.91;7318278;19;129400;-33
2023/08/01 08:11:57;;;;;;;43.80;3.30;;;;;;;25.08;57.79;97736.28;7320180;19;130037;-36
2023/08/01 08:14:23;;;;;;;25.97;2.23;;;;;;;25.08;58.29;97744.16;7321039;19;131012;-36
2023/08/01 08:16:49;;;;;;;39.00;2.80;;;;;;;25.07;58.31;97732.84;7319158;19;130451;-30
2023/08/01 08:19:15;;;;;;;54.13;3.80;;;;;;;25.10;57.89;97742.16;7321817;19;129496;-36
2023/08/01 08:21:40;;;;;;;29.83;2.23;;;;;;;25.05;58.12;97734.06;7318116;19;129956;-37
2023/08/01 08:24:06;;;;;;;28.73;2.37;;;;;;;25.09;57.86;97735.28;7319758;19;130045;-33
2023/08/01 08:26:33;;;;;;;41.77;3.47;;;;;;;25.10;58.16;97732.44;7319738;19;129393;-39
2023/08/01 08:28:59;;;;;;;71.45;4.95;;;;;;;25.08;58.35;97736.28;7311991;19;129343;-41
2023/08/01 08:31:25;;;;;;;36.90;2.80;;;;;;;25.03;58.44;97709.78;7316436;19;130257;-41
2023/08/01 08:33:50;;;;;;;40.43;2.97;;;;;;;25.14;57.78;97727.56;7319651;19;130790;-42
2023/08/01 08:36:15;;;;;;;72.00;4.87;;;;;;;25.13;57.46;97725.94;7319568;19;130180;-38
2023/08/01 08:38:41;;;;;;;64.37;4.50;;;;;;;25.12;58.44;97719.88;7318018;19;129302;-42
2023/08/01 08:41:13;;;;;;;38.73;3.10;;;;;;;25.11;58.80;97718.25;7313718;19;131040;-32
2023/08/01 08:43:39;;;;;;;34.85;2.53;;;;;;;25.12;58.39;97734.88;7316673;19;129177;-34
2023/08/01 08:46:05;;;;;;;39.70;2.85;;;;;;;25.11;58.30;97733.22;7319160;19;129040;-39
2023/08/01 08:48:32;;;;;;;55.33;3.53;;;;;;;25.11;58.76;97725.34;7320145;19;129697;-35
2023/08/01 08:50:59;;;;;;;31.02;2.25;;;;;;;25.13;58.20;97733.84;7315953;19;130196;-38
2023/08/01 08:53:26;;;;;;;34.85;2.72;;;;;;;25.12;58.21;97734.88;7318900;19;130783;-39
2023/08/01 08:55:51;;;;;;;98.85;6.63;;;;;;;25.14;58.59;97735.47;7315693;19;129393;-43
2023/08/01 08:58:17;;;;;;;43.90;3.23;;;;;;;25.17;57.68;97738.47;7322002;19;129278;-38
2023/08/01 09:00:44;;;;;;;66.13;4.53;;;;;;;25.17;58.37;97735.03;7315040;19;130009;-45
2023/08/01 09:03:09;;;;;;;43.10;3.03;;;;;;;25.08;58.83;97696.84;7312679;19;131041;-35
2023/08/01 09:05:49;;;;;;;29.63;2.43;;;;;;;25.16;59.47;97710.56;7318229;19;129571;-33
2023/08/01 09:08:21;;;;;;;47.72;3.13;;;;;;;25.12;59.03;97692.78;7316557;19;129288;-38
2023/08/01 09:10:48;;;;;;;85.50;5.82;;;;;;;25.14;58.40;97675.78;7312407;19;131068;-39
2023/08/01 09:13:14;;;;;;;;;;;;;;;25.20;59.39;97668.88;7310538;19;130645;-39
2023/08/01 09:15:45;;;;;;;36.67;2.70;;;;;;;25.16;59.03;97667.66;7317790;19;129383;-43
2023/08/01 09:18:11;;;;;;;92.32;6.18;;;;;;;25.16;58.57;97683.44;7307421;19;130453;-41
2023/08/01 09:20:42;;;;;;;52.83;3.30;;;;;;;25.14;59.02;97682.88;7304610;19;130631;-36
2023/08/01 09:23:09;;;;;;;47.65;3.17;;;;;;;25.15;58.25;97666.06;7312693;19;130331;-41
2023/08/01 09:25:35;;;;;;;103.15;6.78;;;;;;;25.16;58.47;97662.41;7299798;19;130725;-37
2023/08/01 09:28:00;;;;;;;88.60;6.07;;;;;;;25.17;58.05;97669.31;7298140;19;131046;-40
2023/08/01 09:30:28;;;;;;;62.70;3.93;;;;;;;25.17;58.11;97664.81;7307588;19;131015;-41
2023/08/01 09:32:55;;;;;;;27.65;2.00;;;;;;;25.16;58.26;97655.34;7316645;19;130659;-39
2023/08/01 09:35:22;;;;;;;51.42;3.30;;;;;;;25.16;57.70;97633.47;7315888;19;130543;-40
2023/08/01 09:37:48;;;;;;;40.95;2.92;;;;;;;25.20;58.03;97611.00;7314311;19;129198;-42
2023/08/01 09:40:14;;;;;;;77.43;4.83;;;;;;;25.18;57.54;97607.78;7312546;19;129491;-38
2023/08/01 09:42:42;;;;;;;45.90;3.30;;;;;;;25.18;57.70;97649.84;7311387;19;129407;-33
2023/08/01 09:45:18;;;;;;;31.52;2.17;;;;;;;25.16;59.06;97657.16;7312684;19;129368;-38
2023/08/01 09:47:46;;;;;;;9.63;1.20;;;;;;;25.12;58.14;97666.50;7313944;19;129607;-33
2023/08/01 09:50:19;;;;;;;55.45;3.47;;;;;;;25.03;58.20;97655.38;7310704;19;129754;-38
2023/08/01 09:52:46;;;;;;;43.03;2.70;;;;;;;25.09;57.68;97662.44;7314064;19;129334;-39
2023/08/01 09:55:13;;;;;;;43.17;2.88;;;;;;;25.08;58.50;97660.03;7314404;19;129021;-42
2023/08/01 09:57:43;;;;;;;31.53;2.47;;;;;;;25.08;59.02;97670.53;7315060;19;130396;-36
2023/08/01 10:00:09;;;;;;;31.10;2.42;;;;;;;25.07;58.86;97658.41;7313977;19;129550;-36
2023/08/01 10:02:36;;;;;;;88.47;4.93;;;;;;;25.03;57.91;97646.69;7312815;19;130431;-39
2023/08/01 10:05:02;;;;;;;34.28;2.35;;;;;;;25.05;58.03;97660.44;7312449;19;129518;-37
2023/08/01 10:07:30;;;;;;;41.90;2.78;;;;;;;25.06;58.71;97670.75;7314800;19;129169;-40
2023/08/01 10:09:58;;;;;;;11.75;1.45;;;;;;;25.05;58.41;97669.16;7307565;19;129229;-33
2023/08/01 10:12:26;;;;;;;52.58;3.40;;;;;;;25.04;58.78;97677.25;7310621;19;130535;-35
2023/08/01 10:14:52;;;;;;;47.20;3.22;;;;;;;25.03;58.55;97672.97;7311923;19;130103;-41
2023/08/01 10:17:19;;;;;;;40.40;2.80;;;;;;;25.07;58.79;97679.44;7303212;19;129959;-43
2023/08/01 10:19:47;;;;;;;31.77;2.22;;;;;;;24.98;58.74;97654.38;7313437;19;130375;-40
2023/08/01 10:22:13;;;;;;;59.63;3.80;;;;;;;24.96;58.81;97669.56;7312494;19;130396;-35
2023/08/01 10:24:39;;;;;;;30.23;2.15;;;;;;;25.08;58.53;97678.44;7314606;19;129250;-42
2023/08/01 10:27:36;;;;;;;39.08;2.72;;;;;;;25.12;60.09;97677.00;7313049;19;129170;-38
2023/08/01 10:30:03;;;;;;;55.10;3.65;;;;;;;25.12;58.55;97677.00;7312153;19;130151;-42
2023/08/01 10:32:33;;;;;;;57.70;4.07;;;;;;;25.13;59.29;97689.94;7313412;19;130965;-35
2023/08/01 10:34:59;;;;;;;44.10;2.85;;;;;;;25.12;58.57;97698.81;7315726;19;129614;-35
2023/08/01 10:37:26;;;;;;;60.80;4.03;;;;;;;25.09;58.50;97688.72;7315897;19;128961;-40
2023/08/01 10:39:58;;;;;;;;;;;;;;;25.17;59.77;97711.38;7315790;19;129943;-42
2023/08/01 10:42:24;;;;;;;48.95;3.35;;;;;;;25.13;57.89;97710.97;7313333;19;131207;-40
2023/08/01 10:44:50;;;;;;;38.70;2.63;;;;;;;25.12;58.31;97714.59;7311940;19;128852;-37
2023/08/01 10:47:26;;;;;;;48.70;3.07;;;;;;;25.13;59.42;97713.63;7316549;19;128960;-39
2023/08/01 10:49:51;;;;;;;54.77;3.40;;;;;;;25.06;58.58;97691.78;7312713;19;129886;-37
2023/08/01 10:52:26;;;;;;;36.37;2.37;;;;;;;25.12;58.24;97692.78;7314774;19;130167;-41
2023/08/01 10:55:02;;;;;;;34.95;2.38;;;;;;;25.11;59.43;97693.78;7315362;19;129339;-33
2023/08/01 10:57:29;;;;;;;34.27;2.40;;;;;;;25.13;58.79;97699.66;7315763;19;131118;-39
2023/08/01 10:59:55;;;;;;;;;;;;;;;25.19;59.62;97693.53;7309796;19;129381;-36
2023/08/01 11:02:26;;;;;;;58.15;3.85;;;;;;;25.16;58.88;97693.97;7312200;19;129366;-42
2023/08/01 11:04:56;;;;;;;38.08;2.45;;;;;;;25.15;59.20;97700.25;7314950;19;128950;-41
2023/08/01 11:07:21;;;;;;;46.78;3.42;;;;;;;25.14;58.00;97690.75;7314099;19;130514;-40
2023/08/01 11:09:46;;;;;;;65.77;4.03;;;;;;;25.13;58.05;97695.19;7313065;19;128991;-36
2023/08/01 11:12:12;;;;;;;49.40;3.10;;;;;;;25.14;58.61;97696.03;7309592;19;129156;-37